Back to top

Douglas, WY weather

Converse County Airport, Douglas, WY: 6/27/2022 20:53
Visibility10 statute milesclear sky
View 7-Day Forecast
Area Summary
Sky/CloudsSky Clear
Weather [last 24 hours]None
Pressure30.23 in.Hg (1024 hPa)
3-hour Pressure Tendency0.02362 in.Hg (0.8 hPa) Decreasing or steady, then increasing; or increasing then increasing more rapidly
Dew Point37 °F (2.8 °C)
Relative Humidity 27 %
Temperature73 °F (22.8 °C)red thermometer
Reading TimeMinimum to Maximum Temperature
6-hr ending 6/27@17:5382 °F to 90 °F (27.8 °C to 32.2 °C)
6-hr ending 6/27@11:5346 °F to 82 °F (7.8 °C to 27.8 °C)
6-hr ending 6/27@05:5344.1 °F to 55 °F (6.7 °C to 12.8 °C)
6-hr ending 6/26@23:5354 °F to 72 °F (12.2 °C to 22.2 °C)
24-hr ending 6/27@00:5343 °F to 73.9 °F (6.1 °C to 23.3 °C)
Wind10.4 MPH (9 KT) green arrow pointing 90 degrees
Wind FromEast (090 Degrees)
Twilight Begins04:52Sunshine Yesterday
Sunrise05:27N/A
Sunset20:43
Twilight Ends21:18
METARKDGW 280253Z AUTO 09009KT 10SM CLR 23/03 A3023 RMK AO2 SLP182 T02280028 53008
Tags: